Terminal Aerodrome Forecast
Issued by NWS

Home | Current Version | Previous Version | Text Only | Print | Product List | Glossary On
Versions: 1 2 3 4 5 6 7 8 9 10 11 12 13 14 15
924
FTUS43 KDVN 280610 AAA
TAFBRL
TAF AMD
KBRL 280610Z 2806/2906 VRB03KT P6SM VCTS SCT040 OVC050CB
     FM280800 VRB03KT P6SM BKN050
     FM281200 31005KT P6SM SCT035 BKN100
     FM281600 36007KT P6SM SCT020 BKN035=

USA.gov is the U.S. government's official web portal to all federal, state and local government web resources and services.